Elkhart Lake, Wisconsin
Current Conditions -  °F | °C
As of 5:53 AM on Saturday 20 Dec 2014 (Local Time) from KSBM Reporting Station
Overcast Overcast  
Wind Chill: 26°   Ceiling: 3400
Heat Index: 26°   Visibility: 10mi
Dew Point: 20°   Wind: 3mph
Humidity: 78%   Direction: 330°NNW
Pressure: 30.26"   Gusts: NA
Location:  43.83°N, 88.02°W
Report Text: KSBM 201153Z AUTO 33003KT 10SM OVC034 M03/M07 A3026 RMK AO2 SLP259 T10331067 11028 21033 55001
Loading
Personal Weather Stations






























Interactive Weather Map New forecast layout! Learn more

10-Day Weather Forecast

Advertisements
Track Severe Weather on mobile